Time;durP1;ratioP1;P1;durP2;ratioP2;P2;SDS_P1;SDS_P2;PMS_P1;PMS_P2;Temp;Humidity;BMP_temperature;BMP_pressure;BME280_temperature;BME280_humidity;BME280_pressure;Samples;Min_cycle;Max_cycle;Signal;HPM_P1;HPM_P2
2022/03/19 00:00:29;;;;;;;38.42;14.02;;;;;;;8.21;100.00;101871.84;5001696;28;20120;-83
2022/03/19 00:02:55;;;;;;;46.30;14.88;;;;;;;8.17;100.00;101854.72;4995529;28;20626;-83
2022/03/19 00:05:21;;;;;;;29.02;13.40;;;;;;;8.38;100.00;101881.16;5004914;28;20033;-82
2022/03/19 00:07:46;;;;;;;26.65;11.65;;;;;;;8.27;100.00;101872.25;4993686;28;20488;-83
2022/03/19 00:10:14;;;;;;;33.58;12.93;;;;;;;8.29;100.00;101883.47;4990232;28;20029;-82
2022/03/19 00:12:40;;;;;;;29.38;11.73;;;;;;;8.10;100.00;101838.63;4992838;28;20037;-83
2022/03/19 00:15:07;;;;;;;37.90;12.75;;;;;;;8.36;100.00;101881.25;4993047;28;20034;-82
2022/03/19 00:17:33;;;;;;;31.70;12.75;;;;;;;8.28;100.00;101867.88;4999888;28;20396;-83
2022/03/19 00:20:00;;;;;;;29.88;11.68;;;;;;;8.28;100.00;101873.94;4990433;28;20046;-81
2022/03/19 00:22:26;;;;;;;39.92;13.57;;;;;;;8.11;100.00;101864.69;4992147;28;20042;-81
2022/03/19 00:24:52;;;;;;;35.38;13.05;;;;;;;8.23;100.00;101865.59;4990098;28;20496;-83
2022/03/19 00:27:18;;;;;;;32.90;11.80;;;;;;;8.32;100.00;101873.72;4990874;28;20034;-82
2022/03/19 00:29:43;;;;;;;24.23;11.82;;;;;;;8.28;100.00;101865.28;4972199;28;20031;-83
2022/03/19 00:32:09;;;;;;;39.53;11.95;;;;;;;8.24;100.00;101872.50;4989102;28;20022;-83
2022/03/19 00:34:35;;;;;;;23.67;10.02;;;;;;;8.12;100.00;101863.72;4972982;28;20073;-82
2022/03/19 00:37:01;;;;;;;26.02;11.20;;;;;;;8.03;100.00;101859.13;4990646;28;20029;-83
2022/03/19 00:39:27;;;;;;;24.55;11.80;;;;;;;8.02;100.00;101867.94;4974488;28;20045;-82
2022/03/19 00:41:53;;;;;;;27.77;11.40;;;;;;;7.88;100.00;101862.84;4974301;28;20395;-83
2022/03/19 00:44:21;;;;;;;26.15;10.98;;;;;;;7.88;100.00;101868.06;4972765;28;20034;-83
2022/03/19 00:46:50;;;;;;;18.75;10.48;;;;;;;7.79;100.00;101865.13;4971982;28;20022;-82
2022/03/19 00:49:16;;;;;;;33.80;12.88;;;;;;;7.65;100.00;101845.19;4971310;28;20117;-82
2022/03/19 00:51:41;;;;;;;43.40;13.13;;;;;;;7.75;100.00;101850.59;4991669;28;20122;-83
2022/03/19 00:54:11;;;;;;;32.15;12.18;;;;;;;7.88;100.00;101865.47;4991845;28;20027;-82
2022/03/19 00:56:37;;;;;;;30.88;12.95;;;;;;;7.88;100.00;101865.47;4976687;28;20141;-83
2022/03/19 00:59:03;;;;;;;36.65;13.43;;;;;;;7.84;100.00;101860.41;4994376;28;20587;-83
2022/03/19 01:01:29;;;;;;;30.05;13.48;;;;;;;7.75;100.00;101850.59;4993911;28;20065;-84
2022/03/19 01:03:54;;;;;;;32.42;13.25;;;;;;;7.80;100.00;101851.13;4995389;28;20038;-82
2022/03/19 01:06:20;;;;;;;29.77;13.18;;;;;;;7.82;100.00;101857.06;4995363;28;20026;-81
2022/03/19 01:08:46;;;;;;;34.58;14.38;;;;;;;7.92;100.00;101851.22;4992225;28;20045;-83
2022/03/19 01:11:12;;;;;;;33.00;14.07;;;;;;;7.91;100.00;101847.75;4995061;28;20384;-82
2022/03/19 01:13:38;;;;;;;29.20;14.57;;;;;;;7.78;100.00;101833.88;4977876;28;20041;-82
2022/03/19 01:16:04;;;;;;;37.15;13.77;;;;;;;7.81;100.00;101836.28;4995122;28;20550;-83
2022/03/19 01:18:30;;;;;;;33.55;12.82;;;;;;;7.83;100.00;101832.59;4994998;28;20049;-82
2022/03/19 01:20:56;;;;;;;30.17;13.23;;;;;;;7.82;100.00;101838.78;4981179;28;20041;-82
2022/03/19 01:23:21;;;;;;;45.03;14.07;;;;;;;7.92;100.00;101835.53;4997394;28;20034;-84
2022/03/19 01:25:48;;;;;;;36.70;13.82;;;;;;;7.84;100.00;101818.56;4992332;28;20400;-84
2022/03/19 01:28:14;;;;;;;35.78;12.75;;;;;;;7.91;100.00;101828.63;4993941;28;20038;-85
2022/03/19 01:30:39;;;;;;;33.00;14.10;;;;;;;7.82;100.00;101830.94;4976725;28;20033;-82
2022/03/19 01:33:05;;;;;;;37.83;14.20;;;;;;;7.70;100.00;101810.88;5000769;28;20030;-82
2022/03/19 01:35:31;;;;;;;30.25;13.75;;;;;;;7.81;100.00;101805.72;4994439;28;21279;-82
2022/03/19 01:37:58;;;;;;;29.38;11.93;;;;;;;7.85;100.00;101825.47;4995361;28;20053;-83
2022/03/19 01:40:24;;;;;;;37.47;13.48;;;;;;;7.75;100.00;101821.84;4995374;28;20133;-84
2022/03/19 01:42:52;;;;;;;38.00;14.02;;;;;;;7.75;100.00;101827.06;5005233;28;20451;-83
2022/03/19 01:45:21;;;;;;;41.22;13.98;;;;;;;7.64;100.00;101806.06;4993089;28;20129;-84
2022/03/19 01:47:48;;;;;;;35.13;13.52;;;;;;;7.69;100.00;101819.66;4995846;28;20109;-82
2022/03/19 01:50:16;;;;;;;39.17;14.27;;;;;;;7.74;100.00;101821.94;5003302;28;20048;-83
2022/03/19 01:52:42;;;;;;;33.85;13.82;;;;;;;7.71;100.00;101815.16;4994913;28;20393;-83
2022/03/19 01:55:10;;;;;;;35.50;13.65;;;;;;;7.68;100.00;101810.16;4996768;28;20036;-83
2022/03/19 01:57:40;;;;;;;39.65;14.25;;;;;;;7.74;100.00;101825.41;4995431;28;20447;-83
2022/03/19 02:00:09;;;;;;;29.15;12.45;;;;;;;7.61;100.00;101798.44;5006964;28;20069;-84
2022/03/19 02:02:35;;;;;;;42.63;14.73;;;;;;;7.72;100.00;101822.06;4994142;28;20033;-82
2022/03/19 02:05:03;;;;;;;31.15;13.13;;;;;;;7.69;100.00;101811.81;4986609;28;20053;-83
2022/03/19 02:07:30;;;;;;;35.55;13.13;;;;;;;7.60;100.00;101802.00;4987478;28;20100;-84
2022/03/19 02:10:00;;;;;;;28.90;12.27;;;;;;;7.52;100.00;101800.75;4974911;28;20033;-82
2022/03/19 02:12:27;;;;;;;27.08;12.95;;;;;;;7.53;100.00;101799.81;5006011;28;20480;-84
2022/03/19 02:14:53;;;;;;;27.88;13.00;;;;;;;7.37;100.00;101786.97;4990550;28;20034;-84
2022/03/19 02:17:19;;;;;;;29.23;12.82;;;;;;;7.27;100.00;101776.31;4993914;28;20466;-83
2022/03/19 02:19:50;;;;;;;29.73;12.65;;;;;;;7.34;100.00;101789.78;4977297;28;20077;-82
2022/03/19 02:22:18;;;;;;;33.20;14.00;;;;;;;7.34;100.00;101792.38;4975395;28;20057;-82
2022/03/19 02:27:29;;;;;;;33.17;14.20;;;;;;;7.26;100.00;101786.88;5005843;28;20048;-82
2022/03/19 02:29:56;;;;;;;28.08;14.70;;;;;;;7.18;100.00;101776.94;5004173;28;20034;-83
2022/03/19 02:32:23;;;;;;;34.42;17.45;;;;;;;7.17;100.00;101784.84;4993944;28;20041;-82
2022/03/19 02:34:49;;;;;;;48.28;20.23;;;;;;;7.07;100.00;101774.19;4996018;28;20025;-82
2022/03/19 02:37:15;;;;;;;37.50;19.65;;;;;;;7.02;100.00;101765.84;4971343;28;20475;-82
2022/03/19 02:39:41;;;;;;;42.30;19.83;;;;;;;7.02;100.00;101763.25;5000949;28;20025;-82
2022/03/19 02:42:08;;;;;;;37.55;19.00;;;;;;;6.92;100.00;101753.44;4975021;28;20495;-82
2022/03/19 02:44:35;;;;;;;41.70;19.60;;;;;;;7.02;100.00;101771.06;4981217;28;20476;-83
2022/03/19 02:47:04;;;;;;;43.53;20.38;;;;;;;6.99;100.00;101764.31;5006806;28;20087;-82
2022/03/19 02:49:30;;;;;;;40.67;19.65;;;;;;;6.90;100.00;101744.88;5003753;28;20034;-82
2022/03/19 02:51:56;;;;;;;37.72;19.35;;;;;;;6.97;100.00;101755.69;4993441;28;20034;-83
2022/03/19 02:54:26;;;;;;;36.35;18.42;;;;;;;6.89;100.00;101747.56;4992303;28;20475;-83
2022/03/19 02:56:53;;;;;;;35.47;17.50;;;;;;;6.91;100.00;101751.75;4977563;28;20060;-83
2022/03/19 02:59:34;;;;;;;45.67;18.92;;;;;;;6.95;100.00;101758.44;4975468;28;20038;-82
2022/03/19 03:02:03;;;;;;;39.67;17.08;;;;;;;6.88;100.00;101741.53;4993500;28;20480;-83
2022/03/19 03:04:29;;;;;;;37.45;17.38;;;;;;;6.93;100.00;101744.66;4993479;28;20036;-82
2022/03/19 03:06:57;;;;;;;36.75;16.35;;;;;;;6.93;100.00;101749.88;4975968;28;20038;-83
2022/03/19 03:09:24;;;;;;;27.75;15.02;;;;;;;6.82;100.00;101731.47;4999109;28;20030;-83
2022/03/19 03:11:52;;;;;;;38.53;17.23;;;;;;;6.68;100.00;101707.16;4993044;28;20031;-83
2022/03/19 03:14:21;;;;;;;40.67;18.80;;;;;;;6.84;100.00;101734.81;4994271;28;20022;-82
2022/03/19 03:16:48;;;;;;;59.35;22.33;;;;;;;6.75;100.00;101730.22;4993352;28;20022;-82
2022/03/19 03:19:15;;;;;;;46.28;20.73;;;;;;;6.88;100.00;101733.69;4993485;28;20078;-82
2022/03/19 03:21:44;;;;;;;36.88;19.60;;;;;;;6.91;100.00;101738.69;4974030;28;20053;-84
2022/03/19 03:24:12;;;;;;;36.97;18.05;;;;;;;6.85;100.00;101736.47;5004730;28;20121;-83
2022/03/19 03:26:38;;;;;;;44.30;20.30;;;;;;;6.76;100.00;101724.06;5001491;28;20033;-84
2022/03/19 03:29:05;;;;;;;42.75;20.33;;;;;;;6.77;100.00;101726.56;4992718;28;20030;-82
2022/03/19 03:31:32;;;;;;;49.78;23.48;;;;;;;6.75;100.00;101728.44;4993075;28;20049;-82
2022/03/19 03:33:57;;;;;;;52.17;23.48;;;;;;;6.67;100.00;101708.06;4990968;28;20053;-81
2022/03/19 03:36:23;;;;;;;63.75;24.48;;;;;;;6.70;100.00;101718.31;4969987;28;20066;-82
2022/03/19 03:38:50;;;;;;;55.85;23.05;;;;;;;6.70;100.00;101728.75;4991587;28;20461;-82
2022/03/19 03:41:16;;;;;;;43.90;22.10;;;;;;;6.68;100.00;101709.75;4991760;28;20065;-84
2022/03/19 03:43:42;;;;;;;46.25;21.00;;;;;;;6.77;100.00;101721.31;4992159;28;20073;-82
2022/03/19 03:46:08;;;;;;;53.25;22.88;;;;;;;6.64;100.00;101707.44;4992977;28;20038;-82
2022/03/19 03:48:36;;;;;;;48.90;22.25;;;;;;;6.75;100.00;101725.00;4994197;28;20115;-83
2022/03/19 03:51:03;;;;;;;52.20;22.35;;;;;;;6.74;100.00;101718.09;4993917;28;22444;-82
2022/03/19 03:53:30;;;;;;;53.55;22.60;;;;;;;6.56;100.00;101700.13;4999031;28;20078;-82
2022/03/19 03:55:57;;;;;;;44.85;23.38;;;;;;;6.70;100.00;101713.09;4977398;28;20045;-81
2022/03/19 03:58:24;;;;;;;59.30;27.15;;;;;;;6.55;100.00;101703.69;5001477;28;20035;-82
2022/03/19 04:00:53;;;;;;;60.28;26.63;;;;;;;6.64;100.00;101710.88;4994160;28;20506;-82
2022/03/19 04:03:20;;;;;;;70.47;31.73;;;;;;;6.61;100.00;101716.31;4989898;28;20030;-82
2022/03/19 04:05:45;;;;;;;53.55;26.15;;;;;;;6.62;100.00;101709.34;4990607;28;20034;-83
2022/03/19 04:08:11;;;;;;;72.00;27.55;;;;;;;6.50;100.00;101697.94;4993033;28;20040;-82
2022/03/19 04:10:40;;;;;;;63.75;26.85;;;;;;;6.65;100.00;101709.94;4992882;28;20054;-82
2022/03/19 04:13:06;;;;;;;60.78;26.35;;;;;;;6.57;100.00;101717.47;4976357;28;20030;-82
2022/03/19 04:15:31;;;;;;;71.20;26.63;;;;;;;6.58;100.00;101711.28;4991799;28;20068;-82
2022/03/19 04:17:57;;;;;;;65.38;26.17;;;;;;;6.54;100.00;101697.59;5003108;28;20112;-82
2022/03/19 04:20:23;;;;;;;67.72;25.42;;;;;;;6.50;100.00;101706.59;4997844;28;20034;-82
2022/03/19 04:22:49;;;;;;;61.47;23.83;;;;;;;6.43;100.00;101710.53;5002284;28;20060;-82
2022/03/19 04:25:20;;;;;;;60.40;27.05;;;;;;;6.37;100.00;101696.13;4987219;28;20088;-81
2022/03/19 04:27:51;;;;;;;59.03;23.40;;;;;;;6.37;100.00;101696.13;4999135;28;20472;-82
2022/03/19 04:30:18;;;;;;;55.15;22.35;;;;;;;6.40;100.00;101695.91;5008250;28;20026;-82
2022/03/19 04:32:47;;;;;;;56.17;21.25;;;;;;;6.35;100.00;101697.16;4998350;28;20033;-81
2022/03/19 04:38:01;;;;;;;48.63;18.60;;;;;;;6.31;100.00;101703.50;5001440;28;20073;-81
2022/03/19 04:40:27;;;;;;;55.28;17.80;;;;;;;6.12;100.00;101692.53;5003333;28;20030;-81
2022/03/19 04:42:54;;;;;;;56.72;18.63;;;;;;;6.13;100.00;101688.13;4995336;28;20045;-82
2022/03/19 04:45:20;;;;;;;47.55;16.08;;;;;;;6.19;100.00;101677.31;5004347;28;20388;-82
2022/03/19 04:47:46;;;;;;;50.03;17.08;;;;;;;6.05;100.00;101669.56;4979745;28;20082;-82
2022/03/19 04:50:11;;;;;;;47.67;15.80;;;;;;;6.13;100.00;101688.13;4995436;28;20121;-83
2022/03/19 04:52:38;;;;;;;37.15;13.63;;;;;;;6.14;100.00;101690.66;4994557;28;20039;-82
2022/03/19 04:55:05;;;;;;;61.35;15.88;;;;;;;6.05;100.00;101696.44;4978223;28;20022;-83
2022/03/19 04:57:31;;;;;;;43.33;14.73;;;;;;;6.07;100.00;101702.41;4996815;28;20388;-82
2022/03/19 04:59:58;;;;;;;39.97;13.57;;;;;;;6.14;100.00;101698.47;5003233;28;20058;-82
2022/03/19 05:02:24;;;;;;;37.67;14.02;;;;;;;6.11;100.00;101692.63;5003245;28;20033;-82
2022/03/19 05:04:52;;;;;;;39.15;14.75;;;;;;;6.08;100.00;101696.25;5008710;28;20027;-82
2022/03/19 05:07:22;;;;;;;46.40;16.50;;;;;;;6.00;100.00;101691.53;4998734;28;20030;-81
2022/03/19 05:12:38;;;;;;;35.30;13.80;;;;;;;6.04;100.00;101700.00;5002342;28;20034;-82
2022/03/19 05:15:06;;;;;;;57.75;18.02;;;;;;;5.95;100.00;101687.53;4978816;28;20033;-82
2022/03/19 05:17:31;;;;;;;50.00;17.17;;;;;;;5.83;100.00;101689.97;4990674;28;20066;-82
2022/03/19 05:19:57;;;;;;;47.33;15.23;;;;;;;5.91;100.00;101680.84;5001448;28;20069;-82
2022/03/19 05:22:23;;;;;;;36.30;15.15;;;;;;;5.90;100.00;101684.38;5001942;28;20026;-82
2022/03/19 05:24:50;;;;;;;44.83;14.23;;;;;;;5.91;100.00;101684.28;4998587;28;20033;-82
2022/03/19 05:27:17;;;;;;;50.78;16.88;;;;;;;5.86;100.00;101692.38;4994150;28;20084;-83
2022/03/19 05:29:43;;;;;;;44.50;14.80;;;;;;;5.84;100.00;101681.22;4988867;28;20037;-82
2022/03/19 05:32:10;;;;;;;40.17;16.80;;;;;;;5.78;100.00;101679.00;5000813;28;20416;-81
2022/03/19 05:34:36;;;;;;;43.50;15.70;;;;;;;5.85;100.00;101690.72;4989676;28;20129;-82
2022/03/19 05:37:04;;;;;;;39.03;14.57;;;;;;;5.85;100.00;101679.47;5002835;28;20026;-82
2022/03/19 05:39:32;;;;;;;38.22;14.35;;;;;;;5.77;100.00;101684.31;4994748;28;20060;-82
2022/03/19 05:41:58;;;;;;;40.63;14.50;;;;;;;5.73;100.00;101673.25;5002783;28;20033;-81
2022/03/19 05:44:24;;;;;;;51.45;15.45;;;;;;;5.68;100.00;101668.34;4979249;28;20400;-81
2022/03/19 05:46:49;;;;;;;46.67;16.23;;;;;;;5.70;100.00;101676.88;5006973;28;20044;-82
2022/03/19 05:49:15;;;;;;;55.15;17.25;;;;;;;5.68;100.00;101676.16;5004112;28;20033;-82
2022/03/19 05:51:42;;;;;;;46.15;16.13;;;;;;;5.72;100.00;101684.63;5005638;28;20026;-82
2022/03/19 05:54:09;;;;;;;41.78;14.98;;;;;;;5.76;100.00;101674.81;5003621;28;20057;-81
2022/03/19 05:56:35;;;;;;;37.53;15.70;;;;;;;5.74;100.00;101677.53;4994540;28;20033;-81
2022/03/19 05:59:01;;;;;;;44.40;16.10;;;;;;;5.65;100.00;101667.69;4993955;28;20388;-81
2022/03/19 06:01:28;;;;;;;52.42;16.60;;;;;;;5.63;100.00;101678.22;4976504;28;20026;-80
2022/03/19 06:03:56;;;;;;;44.85;16.02;;;;;;;5.66;100.00;101669.34;4993736;28;20476;-80
2022/03/19 06:06:22;;;;;;;48.88;17.10;;;;;;;5.60;100.00;101680.19;4978169;28;20572;-80
2022/03/19 06:08:47;;;;;;;36.95;15.07;;;;;;;5.69;100.00;101676.97;4992218;28;20026;-80
2022/03/19 06:11:13;;;;;;;41.83;15.75;;;;;;;5.67;100.00;101673.63;4973658;28;20030;-79
2022/03/19 06:13:39;;;;;;;36.40;14.65;;;;;;;5.67;100.00;101676.22;4999899;28;20026;-80
2022/03/19 06:16:05;;;;;;;44.28;16.02;;;;;;;5.68;100.00;101675.31;4975478;28;20440;-76
2022/03/19 06:18:31;;;;;;;54.92;16.58;;;;;;;5.72;100.00;101684.63;4973402;28;20041;-77
2022/03/19 06:20:56;;;;;;;50.67;16.52;;;;;;;5.77;100.00;101677.34;4994344;28;21513;-79
2022/03/19 06:23:23;;;;;;;44.50;14.52;;;;;;;5.81;100.00;101681.41;4992772;28;20078;-78
2022/03/19 06:25:49;;;;;;;42.10;15.63;;;;;;;5.83;100.00;101684.75;4977324;28;20039;-80
2022/03/19 06:28:16;;;;;;;43.88;14.68;;;;;;;5.94;100.00;101685.84;4979399;28;20042;-80
2022/03/19 06:30:42;;;;;;;57.53;17.98;;;;;;;6.35;100.00;101674.53;4995867;28;20037;-82
2022/03/19 06:33:08;;;;;;;43.90;15.52;;;;;;;6.41;100.00;101679.31;4969729;28;20403;-79
2022/03/19 06:38:21;;;;;;;44.72;15.65;;;;;;;6.20;100.00;101667.69;5003178;28;20116;-82
2022/03/19 06:40:47;;;;;;;44.85;14.80;;;;;;;6.35;100.00;101687.56;4997336;28;20053;-81
2022/03/19 06:43:13;;;;;;;43.53;14.52;;;;;;;6.35;100.00;101682.34;4999802;28;20045;-83
2022/03/19 06:45:38;;;;;;;49.65;14.80;;;;;;;6.32;100.00;101666.91;4989457;28;20128;-82
2022/03/19 06:48:05;;;;;;;45.05;15.98;;;;;;;6.34;100.00;101672.00;5007940;28;20038;-81
2022/03/19 06:50:30;;;;;;;51.80;16.80;;;;;;;6.28;100.00;101673.25;4993067;28;20111;-82
2022/03/19 06:52:56;;;;;;;82.15;25.88;;;;;;;6.32;100.00;101679.94;4986892;28;20085;-81
2022/03/19 06:55:22;;;;;;;140.43;27.58;;;;;;;6.41;100.00;101666.28;5003511;28;20034;-83
2022/03/19 06:57:47;;;;;;;48.45;17.55;;;;;;;6.58;100.00;101677.38;5003964;28;20038;-81
2022/03/19 07:00:13;;;;;;;55.75;18.85;;;;;;;6.62;100.00;101678.84;5005603;28;20094;-82
2022/03/19 07:02:57;;;;;;;54.92;18.52;;;;;;;6.57;100.00;101665.25;4999482;28;20061;-80
2022/03/19 07:05:27;;;;;;;54.03;23.90;;;;;;;6.69;100.00;101664.44;4977975;28;20358;-85
2022/03/19 07:07:54;;;;;;;43.35;13.82;;;;;;;6.70;100.00;101678.31;4993471;28;20050;-81
2022/03/19 07:10:21;;;;;;;46.95;17.38;;;;;;;6.70;100.00;101666.13;4995189;28;20030;-85
2022/03/19 07:12:55;;;;;;;37.38;13.30;;;;;;;6.64;100.00;101656.06;4979861;28;20050;-86
2022/03/19 07:15:29;;;;;;;49.78;15.85;;;;;;;6.67;100.00;101665.47;4974167;28;20481;-86
2022/03/19 07:18:02;;;;;;;47.45;19.38;;;;;;;6.68;100.00;101662.78;4982937;28;20030;-86
2022/03/19 07:20:30;;;;;;;45.58;13.98;;;;;;;6.87;100.00;101682.38;5006222;28;20047;-84
2022/03/19 07:23:04;;;;;;;41.05;13.05;;;;;;;6.90;100.00;101674.38;4981288;28;20032;-82
2022/03/19 07:25:34;;;;;;;43.45;12.55;;;;;;;6.97;100.00;101657.31;4997525;28;20174;-82
2022/03/19 07:28:02;;;;;;;41.97;18.10;;;;;;;7.07;100.00;101674.94;4983849;28;20027;-83
2022/03/19 07:30:31;;;;;;;45.78;14.15;;;;;;;6.98;100.00;101679.88;4982554;28;20066;-80
2022/03/19 07:32:57;;;;;;;46.97;16.45;;;;;;;7.00;100.00;101649.28;4994318;28;20057;-81
2022/03/19 07:35:23;;;;;;;40.67;14.73;;;;;;;7.21;100.00;101656.56;4981706;28;20022;-80
2022/03/19 07:37:53;;;;;;;54.92;14.32;;;;;;;7.55;100.00;101682.06;4992341;28;20092;-79
2022/03/19 07:43:15;;;;;;;48.60;23.17;;;;;;;7.42;100.00;101669.03;4989948;28;20054;-79
2022/03/19 07:45:41;;;;;;;44.80;14.40;;;;;;;7.46;100.00;101683.56;4996810;28;20041;-80
2022/03/19 07:48:08;;;;;;;43.03;14.48;;;;;;;7.35;100.00;101642.50;4993580;28;20435;-80
2022/03/19 07:50:36;;;;;;;43.60;16.38;;;;;;;7.84;100.00;101666.91;4992058;28;20081;-79
2022/03/19 07:53:02;;;;;;;45.30;16.23;;;;;;;7.99;100.00;101674.59;4989167;28;20114;-79
2022/03/19 07:55:29;;;;;;;48.38;17.80;;;;;;;8.07;100.00;101669.66;4993931;28;20061;-78
2022/03/19 07:57:55;;;;;;;48.00;16.92;;;;;;;8.11;100.00;101667.63;4977472;28;20041;-78
2022/03/19 08:00:22;;;;;;;48.30;16.42;;;;;;;7.95;100.00;101660.88;4992094;28;20105;-78
2022/03/19 08:02:48;;;;;;;45.00;15.65;;;;;;;7.91;100.00;101663.88;4990774;28;20469;-79
2022/03/19 08:05:13;;;;;;;51.75;12.65;;;;;;;7.80;100.00;101675.91;4987794;28;20050;-78
2022/03/19 08:07:40;;;;;;;33.85;13.90;;;;;;;7.95;100.00;101652.22;4992361;28;20034;-79
2022/03/19 08:10:10;;;;;;;42.28;13.15;;;;;;;8.20;100.00;101672.19;4992382;28;20033;-78
2022/03/19 08:12:37;;;;;;;49.83;14.07;;;;;;;8.23;100.00;101671.09;4987146;28;20064;-78
2022/03/19 08:15:03;;;;;;;34.72;12.45;;;;;;;8.48;100.00;101664.06;4988960;28;20026;-78
2022/03/19 08:17:29;;;;;;;42.92;13.25;;;;;;;8.31;100.00;101657.44;4985977;28;20034;-79
2022/03/19 08:19:59;;;;;;;52.47;13.57;;;;;;;8.25;100.00;101666.59;5001067;28;20068;-79
2022/03/19 08:22:26;;;;;;;43.97;12.80;;;;;;;8.17;100.00;101661.09;4988444;28;20034;-79
2022/03/19 08:24:53;;;;;;;45.95;13.88;;;;;;;8.22;100.00;101664.19;4988265;28;20103;-79
2022/03/19 08:27:19;;;;;;;52.08;17.38;;;;;;;8.39;100.00;101637.59;4985698;28;20038;-80
2022/03/19 08:29:45;;;;;;;39.38;14.98;;;;;;;8.48;100.00;101653.59;4998782;28;20065;-79
2022/03/19 08:32:13;;;;;;;32.30;14.20;;;;;;;8.62;100.00;101642.91;5000607;28;20033;-78
2022/03/19 08:34:38;;;;;;;45.92;14.25;;;;;;;8.65;100.00;101645.31;5001308;28;20030;-80
2022/03/19 08:37:05;;;;;;;44.63;14.98;;;;;;;8.59;100.00;101651.00;5003856;28;20498;-78
2022/03/19 08:42:17;;;;;;;47.83;15.85;;;;;;;8.52;100.00;101639.34;4990932;28;20502;-78
2022/03/19 08:44:42;;;;;;;42.45;15.25;;;;;;;8.68;100.00;101634.59;4997601;28;20450;-78
2022/03/19 08:47:08;;;;;;;45.55;16.48;;;;;;;9.12;100.00;101652.22;4998930;28;20062;-79
2022/03/19 08:49:34;;;;;;;38.15;15.48;;;;;;;9.07;100.00;101651.75;4990217;28;20042;-79
2022/03/19 08:51:59;;;;;;;36.78;16.05;;;;;;;9.46;100.00;101643.47;4992316;28;20026;-79
2022/03/19 08:54:25;;;;;;;45.97;17.45;;;;;;;9.66;100.00;101641.88;4988189;28;20053;-80
2022/03/19 08:56:51;;;;;;;37.85;17.13;;;;;;;9.61;100.00;101644.03;5000015;28;20033;-81
2022/03/19 08:59:21;;;;;;;44.53;17.88;;;;;;;9.94;100.00;101642.25;5001575;28;20030;-79
2022/03/19 09:01:49;;;;;;;39.40;16.27;;;;;;;10.02;100.00;101642.44;4987600;28;20037;-79
2022/03/19 09:04:15;;;;;;;37.30;17.05;;;;;;;10.24;100.00;101643.31;4999217;28;20401;-79
2022/03/19 09:06:42;;;;;;;42.30;16.58;;;;;;;10.45;100.00;101640.69;4994444;28;20134;-81
2022/03/19 09:09:09;;;;;;;43.58;16.85;;;;;;;10.62;100.00;101615.66;4988295;28;20108;-80
2022/03/19 09:11:36;;;;;;;37.20;15.73;;;;;;;10.68;100.00;101633.50;4999430;28;20033;-80
2022/03/19 09:14:04;;;;;;;34.15;15.48;;;;;;;10.42;100.00;101598.94;5004933;28;20138;-85
2022/03/19 09:16:32;;;;;;;36.20;14.80;;;;;;;11.20;100.00;101619.44;5002714;28;20030;-85
2022/03/19 09:18:58;;;;;;;33.90;13.43;;;;;;;11.32;100.00;101598.28;4984110;28;20041;-84
2022/03/19 09:21:24;;;;;;;34.53;14.05;;;;;;;11.78;100.00;101617.81;5010899;28;20061;-83
2022/03/19 09:23:51;;;;;;;35.38;13.85;;;;;;;11.58;100.00;101638.88;4984968;28;20031;-87
2022/03/19 09:26:18;;;;;;;33.03;13.45;;;;;;;11.90;100.00;101605.38;5003535;28;20057;-86
2022/03/19 09:28:45;;;;;;;33.92;13.40;;;;;;;11.67;100.00;101615.34;5002966;28;20034;-89
2022/03/19 09:31:13;;;;;;;33.35;13.25;;;;;;;11.81;100.00;101609.69;4987633;28;20083;-87
2022/03/19 09:33:42;;;;;;;36.78;13.85;;;;;;;12.30;100.00;101607.97;4988383;28;20064;-87
2022/03/19 09:36:07;;;;;;;32.35;13.95;;;;;;;12.19;100.00;101619.50;4987768;28;20377;-87
2022/03/19 09:38:33;;;;;;;34.95;13.10;;;;;;;11.76;100.00;101597.91;4988599;28;20141;-87
2022/03/19 09:41:00;;;;;;;39.42;13.23;;;;;;;11.98;100.00;101607.28;4987843;28;20040;-87
2022/03/19 09:43:27;;;;;;;38.65;13.82;;;;;;;11.75;100.00;101583.09;4982002;28;20074;-88
2022/03/19 09:45:53;;;;;;;30.63;13.50;;;;;;;11.69;100.00;101576.56;4986945;28;20132;-87
2022/03/19 09:48:20;;;;;;;35.60;13.18;;;;;;;11.76;100.00;101596.09;4998944;28;20038;-87
2022/03/19 09:50:51;;;;;;;29.25;13.55;;;;;;;12.13;100.00;101570.88;4983646;28;20061;-88
2022/03/19 09:53:20;;;;;;;37.22;14.55;;;;;;;11.71;100.00;101574.63;4990553;28;20034;-89
2022/03/19 09:55:46;;;;;;;34.53;14.15;;;;;;;11.37;100.00;101546.09;5001107;28;20096;-88
2022/03/19 09:58:15;;;;;;;34.70;13.75;;;;;;;11.37;100.00;101551.34;4985979;28;20030;-87
2022/03/19 10:00:42;;;;;;;30.42;13.50;;;;;;;11.82;100.00;101574.50;4999985;28;20030;-88
2022/03/19 10:03:10;;;;;;;41.78;13.48;;;;;;;12.04;100.00;101579.59;5001582;28;20030;-84
2022/03/19 10:08:39;;;;;;;29.77;14.60;;;;;;;12.00;100.00;101564.06;5018249;28;20408;-83
2022/03/19 10:11:10;;;;;;;33.95;13.98;;;;;;;12.05;100.00;101579.47;4984653;28;20116;-83
2022/03/19 10:13:42;;;;;;;42.67;16.40;;;;;;;11.96;100.00;101567.13;4999263;28;20038;-84
2022/03/19 10:16:10;;;;;;;31.23;13.57;;;;;;;11.93;100.00;101551.63;4998969;28;20053;-83
2022/03/19 10:18:35;;;;;;;27.27;13.25;;;;;;;12.17;100.00;101558.25;4999102;28;20065;-85
2022/03/19 10:21:25;;;;;;;35.05;14.05;;;;;;;12.31;100.00;101551.72;4985342;28;20033;-84
2022/03/19 10:23:52;;;;;;;35.08;12.65;;;;;;;12.39;100.00;101531.56;4985823;28;20407;-83
2022/03/19 10:26:35;;;;;;;26.08;12.40;;;;;;;12.65;100.00;101540.59;4983926;28;20125;-83
2022/03/19 10:29:06;;;;;;;;;;;;;;;12.82;100.00;101542.44;5002459;28;20037;-85
2022/03/19 10:31:50;;;;;;;28.45;11.85;;;;;;;12.56;100.00;101537.03;5002415;28;19940;-84
2022/03/19 10:34:15;;;;;;;28.52;12.73;;;;;;;12.81;100.00;101529.44;4985387;28;20045;-85
2022/03/19 10:36:43;;;;;;;27.95;12.32;;;;;;;13.03;100.00;101522.88;4999110;28;20044;-81
2022/03/19 10:39:17;;;;;;;32.80;13.38;;;;;;;13.38;100.00;101525.72;4977404;28;20025;-81
2022/03/19 10:41:43;;;;;;;;;;;;;;;13.36;100.00;101514.44;4973518;28;20041;-82
2022/03/19 10:44:16;;;;;;;33.97;13.02;;;;;;;13.57;100.00;101512.38;4979439;28;20000;-82
2022/03/19 10:46:53;;;;;;;32.53;12.73;;;;;;;13.65;100.00;101516.06;5005447;28;20041;-82
2022/03/19 10:49:24;;;;;;;24.45;12.38;;;;;;;13.51;100.00;101499.78;4977375;28;20496;-82
2022/03/19 10:51:52;;;;;;;23.05;10.52;;;;;;;13.47;100.00;101487.88;4977817;28;20030;-82
2022/03/19 10:54:18;;;;;;;23.60;10.43;;;;;;;13.72;100.00;101495.97;4989911;28;20030;-83
2022/03/19 10:56:45;;;;;;;23.95;10.07;;;;;;;13.36;100.00;101469.59;4978525;28;20500;-82
2022/03/19 10:59:11;;;;;;;25.75;9.98;;;;;;;13.57;100.00;101488.63;5002003;28;20164;-82
2022/03/19 11:01:37;;;;;;;22.75;9.35;;;;;;;13.67;100.00;101482.41;4993540;28;20058;-81
2022/03/19 11:04:05;;;;;;;19.05;8.40;;;;;;;13.75;100.00;101485.09;4994848;28;20419;-86
2022/03/19 11:06:36;;;;;;;17.00;6.68;;;;;;;13.34;100.00;101477.69;4995920;28;20033;-82
2022/03/19 11:09:09;;;;;;;13.88;7.13;;;;;;;13.40;100.00;101494.72;4998633;28;20404;-83
2022/03/19 11:12:05;;;;;;;18.08;7.20;;;;;;;13.85;100.00;101479.72;4976778;28;20109;-81
2022/03/19 11:14:32;;;;;;;18.50;6.60;;;;;;;14.40;98.58;101473.22;4977297;28;20418;-82
2022/03/19 11:17:25;;;;;;;17.55;6.57;;;;;;;14.55;96.04;101478.72;4976294;28;20483;-80
2022/03/19 11:19:52;;;;;;;12.80;5.85;;;;;;;14.54;95.34;101468.28;4968421;28;20049;-81
2022/03/19 11:22:19;;;;;;;11.55;5.60;;;;;;;14.60;93.29;101462.38;4977188;28;20038;-82
2022/03/19 11:25:17;;;;;;;12.85;5.32;;;;;;;14.88;92.27;101478.00;4972896;28;20031;-82
2022/03/19 11:27:46;;;;;;;12.43;6.95;;;;;;;14.73;92.22;101461.09;4960757;28;20034;-80
2022/03/19 11:30:36;;;;;;;12.25;6.88;;;;;;;14.81;89.57;101461.94;4990295;28;20026;-79